Terminal Aerodrome Forecast
Issued by NWS Tulsa, OK

Home | Current Version | Previous Version | Text Only | Print | Product List | Glossary On
Versions: 1 2 3 4 5 6 7 8 9 10 11 12 13 14 15 16 17 18 19 20 21
000
FTUS44 KTSA 191100
TAFTUL
TAF
KTUL 191133Z 1912/2012 14004KT P6SM OVC250
     FM191400 VRB04KT P6SM VCTS BKN050CB
      TEMPO 1914/1918 3SM TSRA BR BKN035CB
     FM191800 32010KT 4SM TSRA BR BKN035CB
     FM192300 34013G23KT P6SM BKN050
     FM200500 35012G19KT P6SM SKC=

USA.gov is the U.S. government's official web portal to all federal, state and local government web resources and services.